Weather History for KVVV - October, 2013

Change the Weather History Date:

Monday, October 7, 2013

  Actual Average (KAQP) Record (KAQP)
Temperature  
Mean Temperature 56 °F -  
Max Temperature 69 °F 61 °F 86 °F (2003)
Min Temperature 44 °F 37 °F 24 °F (2001)
Degree Days  
Heating Degree Days 8    
Growing Degree Days 6 (Base 50)    
Moisture  
Dew Point 40 °F    
Average Humidity 59    
Maximum Humidity 82    
Minimum Humidity 28    
Precipitation  
Precipitation 0.00 in - - ()
Sea Level Pressure  
Sea Level Pressure 29.91 in    
Wind  
Wind Speed 6 mph (SSW)    
Max Wind Speed 10 mph    
Max Gust Speed -    
Visibility 10 miles    
Events      
Averages and records for this station are not official NWS values.
T = Trace of Precipitation, MM = Missing Value Source: NWS Daily Summary

Daily Weather History Graph

Daily Weather History Graph

Search for Another Location

Airport or City:

Trip Planner

Search our weather history database for the weather conditions in past years. The results will help you decide how hot, cold, wet, or windy it might be!

Date:

Astronomy

Oct. 07, 2013 Rise Set
Actual Time 7:31 AM CDT 6:54 PM CDT
Civil Twilight 7:02 AM CDT 7:23 PM CDT
Nautical Twilight 6:28 AM CDT 7:57 PM CDT
Astronomical Twilight 5:53 AM CDT 8:32 PM CDT
Moon 10:31 AM CDT (10/7) 8:30 PM CDT (10/7)
Length of Visible Light 12h 21m
Length of Day
11h 22m
Waxing Crescent, 9% of the Moon is Illuminated
Oct 7
Waxing Crescent
Oct 11
First Quarter
Oct 18
Full
Oct 26
Last Quarter
Nov 3
New

Hourly Weather History & Observations

Time (CDT) Temp. Windchill Dew Point Humidity Pressure Visibility Wind Dir Wind Speed Gust Speed Precip Events Conditions
12:14 AM 48.2 °F - 39.2 °F 71% 29.88 in 10.0 mi West 9.2 mph - N/A   Clear
12:34 AM 48.2 °F - 39.2 °F 71% 29.88 in 10.0 mi West 6.9 mph - N/A   Clear
12:54 AM 50.0 °F - 39.2 °F 66% 29.87 in 10.0 mi West 6.9 mph - N/A   Clear
1:14 AM 50.0 °F - 39.2 °F 66% 29.87 in 10.0 mi WNW 5.8 mph - N/A   Clear
1:33 AM 50.0 °F - 39.2 °F 66% 29.87 in 10.0 mi West 4.6 mph - N/A   Clear
1:54 AM 51.8 °F - 39.2 °F 62% 29.87 in 10.0 mi West 8.1 mph - N/A   Clear
2:14 AM 51.8 °F - 39.2 °F 62% 29.87 in 10.0 mi West 5.8 mph - N/A   Clear
2:33 AM 48.2 °F - 39.2 °F 71% 29.87 in 10.0 mi West 5.8 mph - N/A   Clear
2:54 AM 48.2 °F - 39.2 °F 71% 29.87 in 10.0 mi WNW 6.9 mph - N/A   Clear
3:14 AM 50.0 °F - 39.2 °F 66% 29.88 in 10.0 mi WNW 8.1 mph - N/A   Clear
3:33 AM 50.0 °F - 39.2 °F 66% 29.88 in 10.0 mi WNW 10.4 mph - N/A   Clear
3:54 AM 48.2 °F - 39.2 °F 71% 29.88 in 10.0 mi WNW 9.2 mph - N/A   Clear
4:14 AM 48.2 °F - 39.2 °F 71% 29.88 in 10.0 mi West 9.2 mph - N/A   Clear
4:33 AM 48.2 °F - 41.0 °F 76% 29.89 in 10.0 mi West 9.2 mph - N/A   Clear
4:54 AM 48.2 °F - 41.0 °F 76% 29.89 in 10.0 mi West 6.9 mph - N/A   Clear
5:14 AM 48.2 °F - 39.2 °F 71% 29.90 in 10.0 mi WNW 8.1 mph - N/A   Clear
5:34 AM 46.4 °F 42.9 °F 41.0 °F 81% 29.90 in 10.0 mi NW 6.9 mph - N/A   Clear
5:54 AM 46.4 °F 43.5 °F 39.2 °F 76% 29.91 in 10.0 mi WNW 5.8 mph - N/A   Clear
6:13 AM 46.4 °F 42.9 °F 41.0 °F 81% 29.91 in 10.0 mi WNW 6.9 mph - N/A   Clear
6:34 AM 46.4 °F 44.3 °F 41.0 °F 81% 29.92 in 10.0 mi NW 4.6 mph - N/A   Clear
6:54 AM 46.4 °F 42.9 °F 39.2 °F 76% 29.92 in 10.0 mi NNW 6.9 mph - N/A   Clear
7:13 AM 46.4 °F 43.5 °F 39.2 °F 76% 29.93 in 10.0 mi NW 5.8 mph - N/A   Clear
7:34 AM 46.4 °F 44.3 °F 39.2 °F 76% 29.94 in 10.0 mi NW 4.6 mph - N/A   Clear
7:54 AM 44.6 °F 43.1 °F 39.2 °F 81% 29.94 in 10.0 mi NW 3.5 mph - N/A   Clear
8:14 AM 44.6 °F 42.2 °F 39.2 °F 81% 29.94 in 10.0 mi North 4.6 mph - N/A   Clear
8:34 AM 46.4 °F 44.3 °F 39.2 °F 76% 29.95 in 10.0 mi NNW 4.6 mph - N/A   Clear
8:53 AM 48.2 °F - 39.2 °F 71% 29.95 in 10.0 mi NNW 6.9 mph - N/A   Clear
9:14 AM 50.0 °F - 41.0 °F 71% 29.95 in 10.0 mi North 4.6 mph - N/A   Clear
9:33 AM 51.8 °F - 42.8 °F 71% 29.96 in 10.0 mi North 5.8 mph - N/A   Clear
9:54 AM 53.6 °F - 42.8 °F 67% 29.97 in 10.0 mi North 3.5 mph - N/A   Clear
10:14 AM 53.6 °F - 42.8 °F 67% 29.97 in 10.0 mi Calm Calm - N/A   Clear
10:33 AM 55.4 °F - 44.6 °F 67% 29.97 in 10.0 mi Calm Calm - N/A   Clear
10:54 AM 57.2 °F - 42.8 °F 59% 29.97 in 10.0 mi Calm Calm - N/A   Clear
11:14 AM 57.2 °F - 44.6 °F 63% 29.98 in 10.0 mi Calm Calm - N/A   Clear
11:34 AM 59.0 °F - 41.0 °F 51% 29.97 in 10.0 mi Calm Calm - N/A   Clear
11:54 AM 60.8 °F - 39.2 °F 45% 29.97 in 10.0 mi Calm Calm - N/A   Clear
12:13 PM 62.6 °F - 42.8 °F 48% 29.98 in 10.0 mi Calm Calm - N/A   Clear
12:34 PM 62.6 °F - 35.6 °F 37% 29.97 in 10.0 mi SSE 4.6 mph - N/A   Clear
12:54 PM 62.6 °F - 37.4 °F 39% 29.97 in 10.0 mi Calm Calm - N/A   Clear
1:13 PM 62.6 °F - 37.4 °F 39% 29.97 in 10.0 mi Calm Calm - N/A   Clear
1:34 PM 64.4 °F - 37.4 °F 37% 29.96 in 10.0 mi SSE 3.5 mph - N/A   Clear
1:54 PM 64.4 °F - 37.4 °F 37% 29.96 in 10.0 mi Calm Calm - N/A   Clear
2:14 PM 66.2 °F - 37.4 °F 35% 29.95 in 10.0 mi SE 3.5 mph - N/A   Clear
2:34 PM 66.2 °F - 37.4 °F 35% 29.94 in 10.0 mi SSW 4.6 mph - N/A   Clear
2:53 PM 68.0 °F - 35.6 °F 30% 29.94 in 10.0 mi South 5.8 mph - N/A   Clear
3:14 PM 68.0 °F - 35.6 °F 30% 29.93 in 10.0 mi SSE 5.8 mph - N/A   Clear
3:33 PM 68.0 °F - 35.6 °F 30% 29.93 in 10.0 mi SE 4.6 mph - N/A   Clear
3:54 PM 68.0 °F - 33.8 °F 28% 29.92 in 10.0 mi Calm Calm - N/A   Clear
4:14 PM 69.8 °F - 35.6 °F 28% 29.91 in 10.0 mi SE 3.5 mph - N/A   Clear
4:33 PM 69.8 °F - 37.4 °F 31% 29.91 in 10.0 mi SE 4.6 mph - N/A   Clear
4:54 PM 69.8 °F - 35.6 °F 28% 29.91 in 10.0 mi SE 4.6 mph - N/A   Clear
5:14 PM 69.8 °F - 37.4 °F 31% 29.91 in 10.0 mi SSE 5.8 mph - N/A   Clear
5:33 PM 69.8 °F - 37.4 °F 31% 29.90 in 10.0 mi SE 5.8 mph - N/A   Clear
5:54 PM 68.0 °F - 39.2 °F 35% 29.90 in 10.0 mi SE 4.6 mph - N/A   Clear
6:13 PM 66.2 °F - 42.8 °F 43% 29.90 in 10.0 mi ESE 3.5 mph - N/A   Clear
6:34 PM 64.4 °F - 42.8 °F 45% 29.89 in 10.0 mi ESE 5.8 mph - N/A   Clear
6:54 PM 60.8 °F - 42.8 °F 52% 29.89 in 10.0 mi ESE 4.6 mph - N/A   Clear
7:13 PM 60.8 °F - 42.8 °F 52% 29.90 in 10.0 mi ESE 5.8 mph - N/A   Clear
7:34 PM 59.0 °F - 42.8 °F 55% 29.89 in 10.0 mi ESE 5.8 mph - N/A   Clear
7:53 PM 57.2 °F - 42.8 °F 59% 29.89 in 10.0 mi ESE 6.9 mph - N/A   Clear
8:14 PM 57.2 °F - 42.8 °F 59% 29.89 in 10.0 mi SE 6.9 mph - N/A   Clear
8:33 PM 57.2 °F - 42.8 °F 59% 29.89 in 10.0 mi ESE 6.9 mph - N/A   Clear
8:54 PM 55.4 °F - 42.8 °F 63% 29.90 in 10.0 mi SE 6.9 mph - N/A   Clear
9:12 PM 53.6 °F - 42.8 °F 67% 29.89 in 10.0 mi SE 5.8 mph - N/A   Clear
9:33 PM 53.6 °F - 42.8 °F 67% 29.89 in 10.0 mi SE 5.8 mph - N/A   Clear
9:54 PM 51.8 °F - 42.8 °F 71% 29.88 in 10.0 mi SE 6.9 mph - N/A   Clear
10:14 PM 51.8 °F - 42.8 °F 71% 29.87 in 10.0 mi SE 6.9 mph - N/A   Clear
10:33 PM 51.8 °F - 42.8 °F 71% 29.88 in 10.0 mi SE 5.8 mph - N/A   Clear
10:54 PM 51.8 °F - 42.8 °F 71% 29.87 in 10.0 mi SE 5.8 mph - N/A   Clear
11:14 PM 50.0 °F - 42.8 °F 76% 29.87 in 10.0 mi SE 5.8 mph - N/A   Clear
11:34 PM 48.2 °F - 42.8 °F 82% 29.87 in 10.0 mi SE 5.8 mph - N/A   Clear
11:54 PM 48.2 °F - 42.8 °F 82% 29.86 in 10.0 mi SE 5.8 mph - N/A   Clear